sensor_id;sensor_type;location;lat;lon;timestamp;pressure;altitude;pressure_sealevel;temperature;humidity
84051;BME280;74137;50.136;19.040;2024-03-08T00:03:22;99491.11;;;-0.64;72.24
84051;BME280;74137;50.136;19.040;2024-03-08T00:06:04;99491.29;;;-0.68;72.33
84051;BME280;74137;50.136;19.040;2024-03-08T00:13:59;99482.69;;;-0.86;72.23
84051;BME280;74137;50.136;19.040;2024-03-08T00:20:22;99484.92;;;-0.93;72.74
84051;BME280;74137;50.136;19.040;2024-03-08T00:35:36;99471.98;;;-0.93;73.04
84051;BME280;74137;50.136;19.040;2024-03-08T00:55:48;99465.20;;;-0.49;72.05
84051;BME280;74137;50.136;19.040;2024-03-08T01:02:42;99457.13;;;-0.59;72.18
84051;BME280;74137;50.136;19.040;2024-03-08T01:05:52;99451.64;;;-0.75;72.54
84051;BME280;74137;50.136;19.040;2024-03-08T01:09:11;99452.34;;;-0.84;72.78
84051;BME280;74137;50.136;19.040;2024-03-08T01:12:09;99449.92;;;-0.94;72.84
84051;BME280;74137;50.136;19.040;2024-03-08T01:15:36;99450.11;;;-1.00;73.13
84051;BME280;74137;50.136;19.040;2024-03-08T01:20:08;99446.48;;;-1.06;73.16
84051;BME280;74137;50.136;19.040;2024-03-08T01:23:37;99434.08;;;-1.14;73.21
84051;BME280;74137;50.136;19.040;2024-03-08T01:33:06;99435.10;;;-1.30;73.46
84051;BME280;74137;50.136;19.040;2024-03-08T01:35:58;99431.31;;;-1.35;73.69
84051;BME280;74137;50.136;19.040;2024-03-08T01:39:44;99426.13;;;-1.42;73.49
84051;BME280;74137;50.136;19.040;2024-03-08T01:43:21;99419.41;;;-1.49;73.59
84051;BME280;74137;50.136;19.040;2024-03-08T01:46:14;99421.98;;;-1.54;73.64
84051;BME280;74137;50.136;19.040;2024-03-08T01:53:31;99411.12;;;-1.65;73.70
84051;BME280;74137;50.136;19.040;2024-03-08T02:09:24;99407.19;;;-1.30;73.21
84051;BME280;74137;50.136;19.040;2024-03-08T02:16:08;99400.13;;;-1.50;73.48
84051;BME280;74137;50.136;19.040;2024-03-08T02:19:40;99394.77;;;-1.63;73.62
84051;BME280;74137;50.136;19.040;2024-03-08T02:26:49;99399.04;;;-1.85;74.35
84051;BME280;74137;50.136;19.040;2024-03-08T02:53:26;99393.73;;;-1.62;74.09
84051;BME280;74137;50.136;19.040;2024-03-08T02:57:09;99397.53;;;-1.63;74.00
84051;BME280;74137;50.136;19.040;2024-03-08T03:00:40;99396.48;;;-1.74;74.09
84051;BME280;74137;50.136;19.040;2024-03-08T03:09:35;99383.34;;;-2.02;74.96
84051;BME280;74137;50.136;19.040;2024-03-08T03:41:18;99388.45;;;-2.16;76.00
84051;BME280;74137;50.136;19.040;2024-03-08T03:57:23;99383.85;;;-2.02;75.93
84051;BME280;74137;50.136;19.040;2024-03-08T04:18:08;99376.36;;;-1.45;75.12
84051;BME280;74137;50.136;19.040;2024-03-08T04:31:00;99379.79;;;-1.55;75.23
84051;BME280;74137;50.136;19.040;2024-03-08T04:43:09;99379.80;;;-1.50;75.28
84051;BME280;74137;50.136;19.040;2024-03-08T04:50:10;99383.25;;;-1.49;75.52
84051;BME280;74137;50.136;19.040;2024-03-08T04:52:39;99380.16;;;-1.47;75.65
84051;BME280;74137;50.136;19.040;2024-03-08T04:55:13;99382.20;;;-1.45;75.46
84051;BME280;74137;50.136;19.040;2024-03-08T04:58:13;99382.91;;;-1.42;75.30
84051;BME280;74137;50.136;19.040;2024-03-08T05:00:47;99379.46;;;-1.40;75.65
84051;BME280;74137;50.136;19.040;2024-03-08T05:03:22;99378.95;;;-1.36;75.49
84051;BME280;74137;50.136;19.040;2024-03-08T05:09:08;99383.42;;;-1.30;75.31
84051;BME280;74137;50.136;19.040;2024-03-08T05:11:46;99381.17;;;-1.30;74.94
84051;BME280;74137;50.136;19.040;2024-03-08T05:19:44;99385.48;;;-1.21;75.32
84051;BME280;74137;50.136;19.040;2024-03-08T05:22:55;99386.35;;;-1.17;74.96
84051;BME280;74137;50.136;19.040;2024-03-08T05:28:48;99390.30;;;-1.10;75.21
84051;BME280;74137;50.136;19.040;2024-03-08T05:31:20;99389.10;;;-1.08;74.87
84051;BME280;74137;50.136;19.040;2024-03-08T05:37:05;99390.48;;;-1.03;74.96
84051;BME280;74137;50.136;19.040;2024-03-08T05:50:44;99400.10;;;-0.85;74.19
84051;BME280;74137;50.136;19.040;2024-03-08T05:54:11;99401.64;;;-0.80;74.06
84051;BME280;74137;50.136;19.040;2024-03-08T05:56:46;99399.73;;;-0.76;73.62
84051;BME280;74137;50.136;19.040;2024-03-08T06:03:31;99392.98;;;-0.66;73.43
84051;BME280;74137;50.136;19.040;2024-03-08T06:13:54;99394.48;;;-0.48;72.75
84051;BME280;74137;50.136;19.040;2024-03-08T06:17:25;99392.92;;;-0.43;72.79
84051;BME280;74137;50.136;19.040;2024-03-08T06:23:10;99397.22;;;-0.35;72.43
84051;BME280;74137;50.136;19.040;2024-03-08T06:26:19;99397.02;;;-0.31;72.05
84051;BME280;74137;50.136;19.040;2024-03-08T06:41:48;99393.16;;;-0.16;72.11
84051;BME280;74137;50.136;19.040;2024-03-08T06:48:51;99391.04;;;-0.05;71.58
84051;BME280;74137;50.136;19.040;2024-03-08T07:10:00;99382.11;;;0.18;70.47
84051;BME280;74137;50.136;19.040;2024-03-08T07:38:34;99386.06;;;0.70;69.31
84051;BME280;74137;50.136;19.040;2024-03-08T07:49:34;99388.06;;;0.78;68.77
84051;BME280;74137;50.136;19.040;2024-03-08T07:53:22;99386.64;;;0.84;69.04
84051;BME280;74137;50.136;19.040;2024-03-08T08:00:19;99388.11;;;0.92;68.33
84051;BME280;74137;50.136;19.040;2024-03-08T08:11:17;99384.80;;;1.14;68.27
84051;BME280;74137;50.136;19.040;2024-03-08T08:14:48;99383.72;;;1.19;67.72
84051;BME280;74137;50.136;19.040;2024-03-08T08:18:25;99384.39;;;1.20;67.50
84051;BME280;74137;50.136;19.040;2024-03-08T09:02:16;99390.98;;;1.95;66.39
84051;BME280;74137;50.136;19.040;2024-03-08T09:12:54;99381.90;;;1.87;65.59
84051;BME280;74137;50.136;19.040;2024-03-08T09:37:19;99371.14;;;1.89;65.70
84051;BME280;74137;50.136;19.040;2024-03-08T10:00:19;99361.11;;;2.98;63.69
84051;BME280;74137;50.136;19.040;2024-03-08T10:02:53;99362.11;;;3.03;62.09
84051;BME280;74137;50.136;19.040;2024-03-08T10:05:22;99362.33;;;2.91;62.70
84051;BME280;74137;50.136;19.040;2024-03-08T10:07:53;99364.55;;;2.82;62.38
84051;BME280;74137;50.136;19.040;2024-03-08T10:10:22;99363.30;;;2.74;62.67
84051;BME280;74137;50.136;19.040;2024-03-08T10:12:51;99366.81;;;2.71;63.27
84051;BME280;74137;50.136;19.040;2024-03-08T10:15:19;99368.17;;;2.73;63.43
84051;BME280;74137;50.136;19.040;2024-03-08T10:17:48;99365.38;;;2.74;63.15
84051;BME280;74137;50.136;19.040;2024-03-08T10:20:18;99369.02;;;2.74;63.22
84051;BME280;74137;50.136;19.040;2024-03-08T10:22:47;99371.18;;;2.70;63.46
84051;BME280;74137;50.136;19.040;2024-03-08T10:25:36;99369.83;;;2.67;63.06
84051;BME280;74137;50.136;19.040;2024-03-08T10:28:09;99371.59;;;2.66;63.41
84051;BME280;74137;50.136;19.040;2024-03-08T10:30:37;99368.03;;;2.71;64.05
84051;BME280;74137;50.136;19.040;2024-03-08T10:33:08;99366.05;;;2.87;63.88
84051;BME280;74137;50.136;19.040;2024-03-08T10:35:37;99362.38;;;2.98;63.91
84051;BME280;74137;50.136;19.040;2024-03-08T10:38:08;99357.95;;;3.13;63.70
84051;BME280;74137;50.136;19.040;2024-03-08T10:40:42;99353.69;;;3.18;62.83
84051;BME280;74137;50.136;19.040;2024-03-08T10:43:19;99346.69;;;3.21;62.42
84051;BME280;74137;50.136;19.040;2024-03-08T10:46:06;99344.48;;;3.27;62.90
84051;BME280;74137;50.136;19.040;2024-03-08T10:48:43;99343.85;;;3.33;62.45
84051;BME280;74137;50.136;19.040;2024-03-08T10:51:14;99344.85;;;3.27;61.82
84051;BME280;74137;50.136;19.040;2024-03-08T10:53:44;99342.18;;;3.21;61.94
84051;BME280;74137;50.136;19.040;2024-03-08T10:56:14;99340.91;;;3.14;61.77
84051;BME280;74137;50.136;19.040;2024-03-08T10:58:44;99345.45;;;3.13;62.27
84051;BME280;74137;50.136;19.040;2024-03-08T11:01:16;99338.91;;;3.19;62.62
84051;BME280;74137;50.136;19.040;2024-03-08T11:03:45;99337.73;;;3.27;62.70
84051;BME280;74137;50.136;19.040;2024-03-08T11:12:26;99334.94;;;3.09;61.86
84051;BME280;74137;50.136;19.040;2024-03-08T11:15:03;99333.65;;;2.95;62.07
84051;BME280;74137;50.136;19.040;2024-03-08T11:20:11;99332.73;;;2.77;62.72
84051;BME280;74137;50.136;19.040;2024-03-08T11:22:52;99330.55;;;2.73;63.38
84051;BME280;74137;50.136;19.040;2024-03-08T11:25:37;99328.27;;;2.75;62.94
84051;BME280;74137;50.136;19.040;2024-03-08T11:28:18;99325.07;;;2.69;62.91
84051;BME280;74137;50.136;19.040;2024-03-08T11:33:34;99322.60;;;2.72;63.80
84051;BME280;74137;50.136;19.040;2024-03-08T11:36:14;99318.70;;;2.76;63.73
84051;BME280;74137;50.136;19.040;2024-03-08T11:38:51;99320.31;;;2.83;64.04
84051;BME280;74137;50.136;19.040;2024-03-08T11:41:22;99314.14;;;2.89;63.81
84051;BME280;74137;50.136;19.040;2024-03-08T11:44:05;99313.39;;;2.92;63.83
84051;BME280;74137;50.136;19.040;2024-03-08T11:46:34;99305.12;;;2.99;63.70
84051;BME280;74137;50.136;19.040;2024-03-08T11:49:03;99301.22;;;3.12;63.98
84051;BME280;74137;50.136;19.040;2024-03-08T11:51:31;99301.92;;;3.30;64.16
84051;BME280;74137;50.136;19.040;2024-03-08T11:54:00;99300.95;;;3.52;64.32
84051;BME280;74137;50.136;19.040;2024-03-08T11:56:29;99296.36;;;3.72;64.02
84051;BME280;74137;50.136;19.040;2024-03-08T11:58:57;99294.13;;;3.88;63.67
84051;BME280;74137;50.136;19.040;2024-03-08T12:01:26;99286.73;;;3.99;63.50
84051;BME280;74137;50.136;19.040;2024-03-08T12:03:57;99285.98;;;4.10;63.15
84051;BME280;74137;50.136;19.040;2024-03-08T12:06:37;99286.27;;;4.19;63.10
84051;BME280;74137;50.136;19.040;2024-03-08T12:09:12;99282.48;;;4.25;62.79
84051;BME280;74137;50.136;19.040;2024-03-08T12:11:41;99279.73;;;4.31;62.53
84051;BME280;74137;50.136;19.040;2024-03-08T12:14:11;99272.10;;;4.30;61.76
84051;BME280;74137;50.136;19.040;2024-03-08T12:16:39;99272.58;;;4.33;62.08
84051;BME280;74137;50.136;19.040;2024-03-08T12:19:10;99270.90;;;4.37;61.96
84051;BME280;74137;50.136;19.040;2024-03-08T12:21:39;99267.30;;;4.42;62.00
84051;BME280;74137;50.136;19.040;2024-03-08T12:24:16;99264.73;;;4.47;62.49
84051;BME280;74137;50.136;19.040;2024-03-08T12:26:48;99255.98;;;4.49;61.59
84051;BME280;74137;50.136;19.040;2024-03-08T12:29:24;99254.39;;;4.51;62.16
84051;BME280;74137;50.136;19.040;2024-03-08T12:31:57;99253.69;;;4.57;62.42
84051;BME280;74137;50.136;19.040;2024-03-08T12:34:30;99246.98;;;4.62;62.05
84051;BME280;74137;50.136;19.040;2024-03-08T12:37:00;99244.98;;;4.64;61.72
84051;BME280;74137;50.136;19.040;2024-03-08T12:39:30;99241.80;;;4.67;61.95
84051;BME280;74137;50.136;19.040;2024-03-08T12:41:58;99239.77;;;4.71;61.63
84051;BME280;74137;50.136;19.040;2024-03-08T12:44:27;99244.20;;;4.74;61.77
84051;BME280;74137;50.136;19.040;2024-03-08T12:46:58;99238.97;;;4.75;61.77
84051;BME280;74137;50.136;19.040;2024-03-08T12:49:28;99240.15;;;4.76;61.41
84051;BME280;74137;50.136;19.040;2024-03-08T12:52:18;99237.73;;;4.76;61.68
84051;BME280;74137;50.136;19.040;2024-03-08T12:55:05;99230.22;;;4.77;61.14
84051;BME280;74137;50.136;19.040;2024-03-08T12:57:38;99231.59;;;4.78;60.96
84051;BME280;74137;50.136;19.040;2024-03-08T13:00:07;99224.16;;;4.76;60.77
84051;BME280;74137;50.136;19.040;2024-03-08T13:02:41;99219.14;;;4.75;61.15
84051;BME280;74137;50.136;19.040;2024-03-08T13:05:10;99214.89;;;4.77;60.90
84051;BME280;74137;50.136;19.040;2024-03-08T13:07:39;99219.00;;;4.74;60.99
84051;BME280;74137;50.136;19.040;2024-03-08T14:00:47;99171.77;;;5.88;58.83
84051;BME280;74137;50.136;19.040;2024-03-08T14:17:10;99170.67;;;5.10;60.10
84051;BME280;74137;50.136;19.040;2024-03-08T14:29:50;99163.84;;;4.94;60.18
84051;BME280;74137;50.136;19.040;2024-03-08T14:38:11;99157.02;;;4.76;60.49
84051;BME280;74137;50.136;19.040;2024-03-08T14:42:03;99150.97;;;4.69;60.58
84051;BME280;74137;50.136;19.040;2024-03-08T14:45:41;99148.05;;;4.67;60.66
84051;BME280;74137;50.136;19.040;2024-03-08T14:53:07;99147.94;;;4.52;60.82
84051;BME280;74137;50.136;19.040;2024-03-08T14:57:45;99144.34;;;4.50;61.08
84051;BME280;74137;50.136;19.040;2024-03-08T15:29:29;99126.34;;;5.20;59.92
84051;BME280;74137;50.136;19.040;2024-03-08T15:32:51;99122.52;;;5.01;60.24
84051;BME280;74137;50.136;19.040;2024-03-08T15:35:51;99121.00;;;4.83;60.26
84051;BME280;74137;50.136;19.040;2024-03-08T15:39:07;99120.86;;;4.63;60.41
84051;BME280;74137;50.136;19.040;2024-03-08T15:42:18;99119.17;;;4.49;60.74
84051;BME280;74137;50.136;19.040;2024-03-08T15:44:47;99118.00;;;4.41;60.91
84051;BME280;74137;50.136;19.040;2024-03-08T15:47:22;99118.23;;;4.32;60.99
84051;BME280;74137;50.136;19.040;2024-03-08T15:49:50;99118.45;;;4.23;61.12
84051;BME280;74137;50.136;19.040;2024-03-08T15:52:26;99113.80;;;4.16;61.33
84051;BME280;74137;50.136;19.040;2024-03-08T15:54:56;99115.27;;;4.06;61.39
84051;BME280;74137;50.136;19.040;2024-03-08T15:57:25;99114.27;;;3.98;61.70
84051;BME280;74137;50.136;19.040;2024-03-08T15:59:55;99111.09;;;3.92;61.73
84051;BME280;74137;50.136;19.040;2024-03-08T16:02:30;99108.83;;;3.86;61.98
84051;BME280;74137;50.136;19.040;2024-03-08T16:05:01;99109.36;;;3.78;61.91
84051;BME280;74137;50.136;19.040;2024-03-08T16:07:30;99115.07;;;3.72;62.07
84051;BME280;74137;50.136;19.040;2024-03-08T16:10:01;99116.81;;;3.65;62.11
84051;BME280;74137;50.136;19.040;2024-03-08T16:12:38;99112.45;;;3.59;62.32
84051;BME280;74137;50.136;19.040;2024-03-08T16:15:11;99114.65;;;3.54;62.59
84051;BME280;74137;50.136;19.040;2024-03-08T16:17:40;99112.88;;;3.48;62.66
84051;BME280;74137;50.136;19.040;2024-03-08T16:20:15;99113.73;;;3.40;62.94
84051;BME280;74137;50.136;19.040;2024-03-08T16:22:44;99113.73;;;3.33;63.03
84051;BME280;74137;50.136;19.040;2024-03-08T16:25:20;99114.94;;;3.26;63.12
84051;BME280;74137;50.136;19.040;2024-03-08T16:27:51;99117.02;;;3.18;63.11
84051;BME280;74137;50.136;19.040;2024-03-08T16:30:19;99115.46;;;3.10;63.26
84051;BME280;74137;50.136;19.040;2024-03-08T16:32:52;99113.23;;;3.01;63.37
84051;BME280;74137;50.136;19.040;2024-03-08T16:35:25;99113.41;;;2.93;63.55
84051;BME280;74137;50.136;19.040;2024-03-08T16:37:58;99111.86;;;2.84;63.83
84051;BME280;74137;50.136;19.040;2024-03-08T16:40:26;99107.75;;;2.74;64.11
84051;BME280;74137;50.136;19.040;2024-03-08T16:42:58;99107.64;;;2.61;64.38
84051;BME280;74137;50.136;19.040;2024-03-08T16:45:29;99106.51;;;2.49;64.62
84051;BME280;74137;50.136;19.040;2024-03-08T16:47:59;99111.38;;;2.40;64.73
84051;BME280;74137;50.136;19.040;2024-03-08T16:50:28;99110.13;;;2.33;65.02
84051;BME280;74137;50.136;19.040;2024-03-08T16:53:00;99108.48;;;2.28;65.07
84051;BME280;74137;50.136;19.040;2024-03-08T16:55:31;99107.39;;;2.21;65.23
84051;BME280;74137;50.136;19.040;2024-03-08T16:58:01;99111.15;;;2.14;65.48
84051;BME280;74137;50.136;19.040;2024-03-08T17:00:35;99107.14;;;2.06;65.63
84051;BME280;74137;50.136;19.040;2024-03-08T17:03:04;99110.92;;;1.98;65.82
84051;BME280;74137;50.136;19.040;2024-03-08T17:05:35;99111.90;;;1.92;65.87
84051;BME280;74137;50.136;19.040;2024-03-08T17:08:08;99111.29;;;1.87;65.99
84051;BME280;74137;50.136;19.040;2024-03-08T17:10:40;99112.54;;;1.84;66.07
84051;BME280;74137;50.136;19.040;2024-03-08T17:13:14;99115.39;;;1.80;66.17
84051;BME280;74137;50.136;19.040;2024-03-08T17:15:51;99116.85;;;1.75;66.31
84051;BME280;74137;50.136;19.040;2024-03-08T17:18:21;99124.54;;;1.71;66.40
84051;BME280;74137;50.136;19.040;2024-03-08T17:20:51;99119.45;;;1.65;66.65
84051;BME280;74137;50.136;19.040;2024-03-08T17:23:22;99123.36;;;1.58;66.59
84051;BME280;74137;50.136;19.040;2024-03-08T17:25:50;99126.05;;;1.52;67.01
84051;BME280;74137;50.136;19.040;2024-03-08T17:28:23;99127.71;;;1.45;67.01
84051;BME280;74137;50.136;19.040;2024-03-08T17:30:55;99127.30;;;1.38;67.36
84051;BME280;74137;50.136;19.040;2024-03-08T17:33:24;99127.55;;;1.33;67.44
84051;BME280;74137;50.136;19.040;2024-03-08T17:35:53;99129.02;;;1.27;67.46
84051;BME280;74137;50.136;19.040;2024-03-08T17:38:29;99128.08;;;1.21;67.56
84051;BME280;74137;50.136;19.040;2024-03-08T17:41:02;99129.00;;;1.16;67.67
84051;BME280;74137;50.136;19.040;2024-03-08T17:43:32;99127.83;;;1.13;67.95
84051;BME280;74137;50.136;19.040;2024-03-08T17:46:00;99126.88;;;1.07;68.09
84051;BME280;74137;50.136;19.040;2024-03-08T17:48:35;99123.98;;;1.03;68.27
84051;BME280;74137;50.136;19.040;2024-03-08T17:51:03;99124.23;;;0.98;68.37
84051;BME280;74137;50.136;19.040;2024-03-08T17:53:32;99127.40;;;0.93;68.62
84051;BME280;74137;50.136;19.040;2024-03-08T17:56:02;99130.41;;;0.87;68.54
84051;BME280;74137;50.136;19.040;2024-03-08T17:58:36;99127.92;;;0.80;68.75
84051;BME280;74137;50.136;19.040;2024-03-08T18:01:04;99127.13;;;0.74;69.03
84051;BME280;74137;50.136;19.040;2024-03-08T18:03:40;99125.99;;;0.68;68.92
84051;BME280;74137;50.136;19.040;2024-03-08T18:06:08;99127.41;;;0.66;69.00
84051;BME280;74137;50.136;19.040;2024-03-08T18:08:37;99127.79;;;0.63;69.10
84051;BME280;74137;50.136;19.040;2024-03-08T18:11:06;99124.70;;;0.60;69.29
84051;BME280;74137;50.136;19.040;2024-03-08T18:13:36;99129.39;;;0.60;69.42
84051;BME280;74137;50.136;19.040;2024-03-08T18:16:05;99127.50;;;0.58;69.53
84051;BME280;74137;50.136;19.040;2024-03-08T18:18:35;99125.96;;;0.57;69.52
84051;BME280;74137;50.136;19.040;2024-03-08T18:21:05;99126.98;;;0.58;69.50
84051;BME280;74137;50.136;19.040;2024-03-08T18:23:33;99124.41;;;0.57;69.70
84051;BME280;74137;50.136;19.040;2024-03-08T18:26:02;99123.23;;;0.54;69.66
84051;BME280;74137;50.136;19.040;2024-03-08T18:28:32;99121.19;;;0.51;69.58
84051;BME280;74137;50.136;19.040;2024-03-08T18:31:01;99120.21;;;0.46;69.47
84051;BME280;74137;50.136;19.040;2024-03-08T18:33:37;99122.15;;;0.43;69.70
84051;BME280;74137;50.136;19.040;2024-03-08T18:36:07;99121.52;;;0.38;69.53
84051;BME280;74137;50.136;19.040;2024-03-08T18:38:40;99116.91;;;0.31;69.84
84051;BME280;74137;50.136;19.040;2024-03-08T18:41:08;99116.64;;;0.25;69.88
84051;BME280;74137;50.136;19.040;2024-03-08T18:43:36;99116.20;;;0.18;69.73
84051;BME280;74137;50.136;19.040;2024-03-08T18:46:10;99113.66;;;0.12;69.84
84051;BME280;74137;50.136;19.040;2024-03-08T18:48:39;99113.20;;;0.06;69.84
84051;BME280;74137;50.136;19.040;2024-03-08T18:51:09;99112.23;;;0.00;70.14
84051;BME280;74137;50.136;19.040;2024-03-08T18:53:38;99108.64;;;-0.05;70.13
84051;BME280;74137;50.136;19.040;2024-03-08T18:56:09;99105.95;;;-0.11;70.34
84051;BME280;74137;50.136;19.040;2024-03-08T18:58:38;99104.09;;;-0.14;70.58
84051;BME280;74137;50.136;19.040;2024-03-08T19:01:13;99103.08;;;-0.19;70.75
84051;BME280;74137;50.136;19.040;2024-03-08T19:03:44;99102.26;;;-0.23;70.69
84051;BME280;74137;50.136;19.040;2024-03-08T19:06:14;99105.56;;;-0.26;70.75
84051;BME280;74137;50.136;19.040;2024-03-08T19:08:46;99105.94;;;-0.30;70.87
84051;BME280;74137;50.136;19.040;2024-03-08T19:11:19;99105.48;;;-0.36;70.94
84051;BME280;74137;50.136;19.040;2024-03-08T19:13:50;99107.04;;;-0.38;71.03
84051;BME280;74137;50.136;19.040;2024-03-08T19:16:19;99105.35;;;-0.42;71.08
84051;BME280;74137;50.136;19.040;2024-03-08T19:18:50;99102.08;;;-0.43;71.26
84051;BME280;74137;50.136;19.040;2024-03-08T19:21:22;99106.05;;;-0.44;71.30
84051;BME280;74137;50.136;19.040;2024-03-08T19:23:53;99106.59;;;-0.45;71.83
84051;BME280;74137;50.136;19.040;2024-03-08T19:26:22;99105.55;;;-0.45;71.68
84051;BME280;74137;50.136;19.040;2024-03-08T19:28:51;99102.97;;;-0.46;71.60
84051;BME280;74137;50.136;19.040;2024-03-08T19:31:20;99102.27;;;-0.46;71.42
84051;BME280;74137;50.136;19.040;2024-03-08T19:33:49;99099.52;;;-0.47;71.70
84051;BME280;74137;50.136;19.040;2024-03-08T19:36:17;99098.86;;;-0.50;71.59
84051;BME280;74137;50.136;19.040;2024-03-08T19:38:47;99094.94;;;-0.55;71.52
84051;BME280;74137;50.136;19.040;2024-03-08T19:41:25;99091.51;;;-0.58;71.64
84051;BME280;74137;50.136;19.040;2024-03-08T19:44:05;99093.27;;;-0.62;71.70
84051;BME280;74137;50.136;19.040;2024-03-08T19:46:42;99085.52;;;-0.64;72.06
84051;BME280;74137;50.136;19.040;2024-03-08T19:49:11;99089.83;;;-0.65;72.06
84051;BME280;74137;50.136;19.040;2024-03-08T19:51:40;99085.72;;;-0.67;72.09
84051;BME280;74137;50.136;19.040;2024-03-08T19:54:08;99086.77;;;-0.69;72.04
84051;BME280;74137;50.136;19.040;2024-03-08T19:56:37;99086.24;;;-0.69;72.13
84051;BME280;74137;50.136;19.040;2024-03-08T19:59:15;99083.30;;;-0.68;72.32
84051;BME280;74137;50.136;19.040;2024-03-08T20:01:46;99080.20;;;-0.68;72.54
84051;BME280;74137;50.136;19.040;2024-03-08T20:04:15;99081.07;;;-0.69;72.22
84051;BME280;74137;50.136;19.040;2024-03-08T20:06:46;99075.58;;;-0.71;72.23
84051;BME280;74137;50.136;19.040;2024-03-08T20:09:15;99082.13;;;-0.73;72.23
84051;BME280;74137;50.136;19.040;2024-03-08T20:11:52;99085.77;;;-0.76;72.49
84051;BME280;74137;50.136;19.040;2024-03-08T20:14:26;99082.86;;;-0.77;72.41
84051;BME280;74137;50.136;19.040;2024-03-08T20:16:57;99082.52;;;-0.79;72.51
84051;BME280;74137;50.136;19.040;2024-03-08T20:19:26;99082.38;;;-0.82;72.27
84051;BME280;74137;50.136;19.040;2024-03-08T20:21:56;99086.34;;;-0.83;72.46
84051;BME280;74137;50.136;19.040;2024-03-08T20:24:27;99084.64;;;-0.85;72.30
84051;BME280;74137;50.136;19.040;2024-03-08T20:26:57;99084.48;;;-0.88;72.33
84051;BME280;74137;50.136;19.040;2024-03-08T20:29:28;99080.02;;;-0.92;72.36
84051;BME280;74137;50.136;19.040;2024-03-08T20:32:03;99075.92;;;-0.97;72.20
84051;BME280;74137;50.136;19.040;2024-03-08T20:34:32;99079.92;;;-1.03;72.41
84051;BME280;74137;50.136;19.040;2024-03-08T20:37:02;99074.95;;;-1.08;72.41
84051;BME280;74137;50.136;19.040;2024-03-08T20:39:39;99071.02;;;-1.14;72.52
84051;BME280;74137;50.136;19.040;2024-03-08T20:42:08;99071.40;;;-1.19;72.89
84051;BME280;74137;50.136;19.040;2024-03-08T20:44:36;99067.98;;;-1.23;72.78
84051;BME280;74137;50.136;19.040;2024-03-08T20:47:04;99067.14;;;-1.28;73.10
84051;BME280;74137;50.136;19.040;2024-03-08T20:49:33;99066.65;;;-1.32;72.84
84051;BME280;74137;50.136;19.040;2024-03-08T20:52:02;99063.74;;;-1.37;73.00
84051;BME280;74137;50.136;19.040;2024-03-08T20:54:30;99063.59;;;-1.41;73.28
84051;BME280;74137;50.136;19.040;2024-03-08T20:57:00;99061.37;;;-1.43;73.57
84051;BME280;74137;50.136;19.040;2024-03-08T20:59:28;99061.89;;;-1.44;73.52
84051;BME280;74137;50.136;19.040;2024-03-08T21:01:57;99059.48;;;-1.45;73.53
84051;BME280;74137;50.136;19.040;2024-03-08T21:04:30;99057.77;;;-1.47;73.62
84051;BME280;74137;50.136;19.040;2024-03-08T21:06:59;99055.20;;;-1.50;73.51
84051;BME280;74137;50.136;19.040;2024-03-08T21:09:28;99053.50;;;-1.53;73.77
84051;BME280;74137;50.136;19.040;2024-03-08T21:11:58;99050.23;;;-1.57;73.62
84051;BME280;74137;50.136;19.040;2024-03-08T21:14:33;99045.25;;;-1.61;73.74
84051;BME280;74137;50.136;19.040;2024-03-08T21:17:02;99045.96;;;-1.63;73.98
84051;BME280;74137;50.136;19.040;2024-03-08T21:19:34;99044.27;;;-1.66;73.99
84051;BME280;74137;50.136;19.040;2024-03-08T21:22:15;99049.59;;;-1.66;74.01
84051;BME280;74137;50.136;19.040;2024-03-08T21:24:44;99048.21;;;-1.66;74.04
84051;BME280;74137;50.136;19.040;2024-03-08T21:27:12;99047.17;;;-1.67;74.25
84051;BME280;74137;50.136;19.040;2024-03-08T21:29:44;99044.08;;;-1.65;74.40
84051;BME280;74137;50.136;19.040;2024-03-08T21:32:14;99044.23;;;-1.65;74.31
84051;BME280;74137;50.136;19.040;2024-03-08T21:34:46;99041.84;;;-1.65;74.49
84051;BME280;74137;50.136;19.040;2024-03-08T21:37:15;99043.39;;;-1.65;74.45
84051;BME280;74137;50.136;19.040;2024-03-08T21:39:45;99043.90;;;-1.64;74.40
84051;BME280;74137;50.136;19.040;2024-03-08T21:42:14;99042.86;;;-1.63;74.38
84051;BME280;74137;50.136;19.040;2024-03-08T21:44:44;99038.39;;;-1.63;74.39
84051;BME280;74137;50.136;19.040;2024-03-08T21:47:16;99038.20;;;-1.62;74.44
84051;BME280;74137;50.136;19.040;2024-03-08T21:49:47;99037.85;;;-1.62;74.42
84051;BME280;74137;50.136;19.040;2024-03-08T21:52:19;99031.83;;;-1.61;74.44
84051;BME280;74137;50.136;19.040;2024-03-08T21:54:52;99030.79;;;-1.62;74.47
84051;BME280;74137;50.136;19.040;2024-03-08T21:57:21;99032.88;;;-1.63;74.25
84051;BME280;74137;50.136;19.040;2024-03-08T21:59:51;99033.56;;;-1.64;74.41
84051;BME280;74137;50.136;19.040;2024-03-08T22:02:20;99031.33;;;-1.64;74.22
84051;BME280;74137;50.136;19.040;2024-03-08T22:04:49;99031.16;;;-1.65;74.74
84051;BME280;74137;50.136;19.040;2024-03-08T22:07:17;99029.95;;;-1.66;74.58
84051;BME280;74137;50.136;19.040;2024-03-08T22:09:47;99026.52;;;-1.67;74.29
84051;BME280;74137;50.136;19.040;2024-03-08T22:12:15;99027.73;;;-1.68;74.42
84051;BME280;74137;50.136;19.040;2024-03-08T22:14:47;99030.14;;;-1.69;74.37
84051;BME280;74137;50.136;19.040;2024-03-08T22:17:15;99027.05;;;-1.71;74.28
84051;BME280;74137;50.136;19.040;2024-03-08T22:19:46;99023.80;;;-1.73;74.18
84051;BME280;74137;50.136;19.040;2024-03-08T22:22:15;99022.23;;;-1.74;74.50
84051;BME280;74137;50.136;19.040;2024-03-08T22:24:49;99020.54;;;-1.76;74.29
84051;BME280;74137;50.136;19.040;2024-03-08T22:27:22;99019.34;;;-1.80;74.23
84051;BME280;74137;50.136;19.040;2024-03-08T22:29:55;99016.09;;;-1.83;74.26
84051;BME280;74137;50.136;19.040;2024-03-08T22:32:24;99016.61;;;-1.86;74.34
84051;BME280;74137;50.136;19.040;2024-03-08T22:34:53;99016.97;;;-1.90;74.53
84051;BME280;74137;50.136;19.040;2024-03-08T22:37:22;99018.20;;;-1.94;74.39
84051;BME280;74137;50.136;19.040;2024-03-08T22:39:53;99013.39;;;-1.98;74.53
84051;BME280;74137;50.136;19.040;2024-03-08T22:42:28;99013.75;;;-2.01;74.88